sensor_id;sensor_type;location;lat;lon;timestamp;pressure;altitude;pressure_sealevel;temperature;humidity
58769;BME280;44536;47.474;19.056;2023-05-16T00:02:29;100042.75;;;13.46;100.00
58769;BME280;44536;47.474;19.056;2023-05-16T00:05:32;100039.53;;;13.43;100.00
58769;BME280;44536;47.474;19.056;2023-05-16T00:08:34;100033.63;;;13.39;100.00
58769;BME280;44536;47.474;19.056;2023-05-16T00:11:37;100027.91;;;13.34;100.00
58769;BME280;44536;47.474;19.056;2023-05-16T00:14:39;100016.00;;;13.29;100.00
58769;BME280;44536;47.474;19.056;2023-05-16T00:17:42;100015.28;;;13.27;100.00
58769;BME280;44536;47.474;19.056;2023-05-16T00:20:48;100021.47;;;13.27;100.00
58769;BME280;44536;47.474;19.056;2023-05-16T00:23:51;100015.16;;;13.28;100.00
58769;BME280;44536;47.474;19.056;2023-05-16T00:26:53;100019.22;;;13.22;100.00
58769;BME280;44536;47.474;19.056;2023-05-16T00:29:56;100009.41;;;13.23;100.00
58769;BME280;44536;47.474;19.056;2023-05-16T00:32:58;100009.13;;;13.16;100.00
58769;BME280;44536;47.474;19.056;2023-05-16T00:36:02;100011.34;;;13.11;100.00
58769;BME280;44536;47.474;19.056;2023-05-16T00:39:04;100011.62;;;13.08;100.00
58769;BME280;44536;47.474;19.056;2023-05-16T00:42:07;100018.91;;;13.06;100.00
58769;BME280;44536;47.474;19.056;2023-05-16T00:45:09;100019.47;;;13.00;100.00
58769;BME280;44536;47.474;19.056;2023-05-16T00:48:13;100022.00;;;13.02;100.00
58769;BME280;44536;47.474;19.056;2023-05-16T00:51:16;100016.66;;;13.02;100.00
58769;BME280;44536;47.474;19.056;2023-05-16T00:54:21;100023.41;;;12.96;100.00
58769;BME280;44536;47.474;19.056;2023-05-16T00:57:26;100030.28;;;12.89;100.00
58769;BME280;44536;47.474;19.056;2023-05-16T01:00:29;100035.03;;;12.85;100.00
58769;BME280;44536;47.474;19.056;2023-05-16T01:03:32;100037.69;;;12.85;100.00
58769;BME280;44536;47.474;19.056;2023-05-16T01:06:35;100039.94;;;12.80;100.00
58769;BME280;44536;47.474;19.056;2023-05-16T01:09:39;100042.59;;;12.80;100.00
58769;BME280;44536;47.474;19.056;2023-05-16T01:19:13;100053.78;;;12.74;100.00
58769;BME280;44536;47.474;19.056;2023-05-16T01:22:29;100041.59;;;12.72;100.00
58769;BME280;44536;47.474;19.056;2023-05-16T01:25:50;100039.09;;;12.80;100.00
58769;BME280;44536;47.474;19.056;2023-05-16T01:28:57;100031.53;;;12.75;100.00
58769;BME280;44536;47.474;19.056;2023-05-16T01:32:00;100050.69;;;12.69;100.00
58769;BME280;44536;47.474;19.056;2023-05-16T01:35:04;100044.09;;;12.64;100.00
58769;BME280;44536;47.474;19.056;2023-05-16T01:38:24;100041.56;;;12.62;100.00
58769;BME280;44536;47.474;19.056;2023-05-16T01:41:36;100038.78;;;12.64;100.00
58769;BME280;44536;47.474;19.056;2023-05-16T01:44:49;100021.41;;;12.59;100.00
58769;BME280;44536;47.474;19.056;2023-05-16T01:48:09;100008.97;;;12.60;100.00
58769;BME280;44536;47.474;19.056;2023-05-16T01:51:14;100007.84;;;12.63;100.00
58769;BME280;44536;47.474;19.056;2023-05-16T01:54:18;100015.28;;;12.69;100.00
58769;BME280;44536;47.474;19.056;2023-05-16T01:57:24;100006.72;;;12.65;100.00
58769;BME280;44536;47.474;19.056;2023-05-16T02:00:27;99987.13;;;12.66;100.00
58769;BME280;44536;47.474;19.056;2023-05-16T02:03:34;99982.91;;;12.64;100.00
58769;BME280;44536;47.474;19.056;2023-05-16T02:06:36;99982.91;;;12.64;100.00
58769;BME280;44536;47.474;19.056;2023-05-16T02:09:39;99994.53;;;12.63;100.00
58769;BME280;44536;47.474;19.056;2023-05-16T02:12:41;99996.09;;;12.65;100.00
58769;BME280;44536;47.474;19.056;2023-05-16T02:15:44;99990.62;;;12.76;100.00
58769;BME280;44536;47.474;19.056;2023-05-16T02:18:47;99991.03;;;12.62;100.00
58769;BME280;44536;47.474;19.056;2023-05-16T02:21:49;99997.62;;;12.58;100.00
58769;BME280;44536;47.474;19.056;2023-05-16T02:24:52;99984.59;;;12.55;100.00
58769;BME280;44536;47.474;19.056;2023-05-16T02:27:54;99986.53;;;12.53;100.00
58769;BME280;44536;47.474;19.056;2023-05-16T02:30:58;99971.84;;;12.49;100.00
58769;BME280;44536;47.474;19.056;2023-05-16T02:34:01;99959.69;;;12.46;100.00
58769;BME280;44536;47.474;19.056;2023-05-16T02:37:04;99967.38;;;12.49;100.00
58769;BME280;44536;47.474;19.056;2023-05-16T02:40:07;99962.59;;;12.53;100.00
58769;BME280;44536;47.474;19.056;2023-05-16T02:43:11;99947.34;;;12.55;100.00
58769;BME280;44536;47.474;19.056;2023-05-16T02:46:24;99958.00;;;12.45;100.00
58769;BME280;44536;47.474;19.056;2023-05-16T02:49:27;99981.38;;;12.42;100.00
58769;BME280;44536;47.474;19.056;2023-05-16T02:52:29;99986.97;;;12.39;100.00
58769;BME280;44536;47.474;19.056;2023-05-16T02:55:31;99990.59;;;12.38;100.00
58769;BME280;44536;47.474;19.056;2023-05-16T02:58:33;99981.78;;;12.37;100.00
58769;BME280;44536;47.474;19.056;2023-05-16T03:01:36;99985.72;;;12.43;100.00
58769;BME280;44536;47.474;19.056;2023-05-16T03:04:39;99989.91;;;12.55;100.00
58769;BME280;44536;47.474;19.056;2023-05-16T03:07:41;99977.44;;;12.55;100.00
58769;BME280;44536;47.474;19.056;2023-05-16T03:10:43;99967.50;;;12.48;100.00
58769;BME280;44536;47.474;19.056;2023-05-16T03:13:47;99955.50;;;12.44;100.00
58769;BME280;44536;47.474;19.056;2023-05-16T03:16:50;99954.38;;;12.46;100.00
58769;BME280;44536;47.474;19.056;2023-05-16T03:19:53;99947.50;;;12.44;100.00
58769;BME280;44536;47.474;19.056;2023-05-16T03:22:55;99964.59;;;12.41;100.00
58769;BME280;44536;47.474;19.056;2023-05-16T03:25:58;99969.34;;;12.38;100.00
58769;BME280;44536;47.474;19.056;2023-05-16T03:29:00;99988.66;;;12.40;100.00
58769;BME280;44536;47.474;19.056;2023-05-16T03:32:03;99993.97;;;12.40;100.00
58769;BME280;44536;47.474;19.056;2023-05-16T03:35:06;99993.97;;;12.40;100.00
58769;BME280;44536;47.474;19.056;2023-05-16T03:38:09;99992.84;;;12.52;100.00
58769;BME280;44536;47.474;19.056;2023-05-16T03:41:11;99979.69;;;12.50;100.00
58769;BME280;44536;47.474;19.056;2023-05-16T03:44:14;99977.87;;;12.51;100.00
58769;BME280;44536;47.474;19.056;2023-05-16T03:47:16;99980.81;;;12.57;100.00
58769;BME280;44536;47.474;19.056;2023-05-16T03:50:18;99960.94;;;12.52;100.00
58769;BME280;44536;47.474;19.056;2023-05-16T03:53:20;99960.94;;;12.52;100.00
58769;BME280;44536;47.474;19.056;2023-05-16T03:56:23;99957.31;;;12.63;100.00
58769;BME280;44536;47.474;19.056;2023-05-16T03:59:25;99965.56;;;12.69;100.00
58769;BME280;44536;47.474;19.056;2023-05-16T04:02:27;99962.47;;;12.64;100.00
58769;BME280;44536;47.474;19.056;2023-05-16T04:05:30;99966.25;;;12.62;100.00
58769;BME280;44536;47.474;19.056;2023-05-16T04:08:33;99961.78;;;12.62;100.00
58769;BME280;44536;47.474;19.056;2023-05-16T04:11:35;99963.75;;;12.60;100.00
58769;BME280;44536;47.474;19.056;2023-05-16T04:14:40;99960.94;;;12.62;100.00
58769;BME280;44536;47.474;19.056;2023-05-16T04:17:42;99965.28;;;12.63;100.00
58769;BME280;44536;47.474;19.056;2023-05-16T04:20:45;99972.72;;;12.69;100.00
58769;BME280;44536;47.474;19.056;2023-05-16T04:23:48;99988.97;;;12.75;100.00
58769;BME280;44536;47.474;19.056;2023-05-16T04:26:51;99977.47;;;12.75;100.00
58769;BME280;44536;47.474;19.056;2023-05-16T04:29:54;99978.03;;;12.78;100.00
58769;BME280;44536;47.474;19.056;2023-05-16T04:32:56;99985.47;;;12.84;100.00
58769;BME280;44536;47.474;19.056;2023-05-16T04:36:00;99997.94;;;12.93;100.00
58769;BME280;44536;47.474;19.056;2023-05-16T04:39:03;99989.53;;;12.98;100.00
58769;BME280;44536;47.474;19.056;2023-05-16T04:42:06;99991.22;;;12.99;100.00
58769;BME280;44536;47.474;19.056;2023-05-16T04:45:08;99995.97;;;12.96;100.00
58769;BME280;44536;47.474;19.056;2023-05-16T04:48:15;99997.38;;;13.00;100.00
58769;BME280;44536;47.474;19.056;2023-05-16T04:51:18;100000.31;;;12.97;100.00
58769;BME280;44536;47.474;19.056;2023-05-16T04:54:20;99998.75;;;13.04;100.00
58769;BME280;44536;47.474;19.056;2023-05-16T04:57:23;100009.25;;;13.05;100.00
58769;BME280;44536;47.474;19.056;2023-05-16T05:00:25;100007.88;;;12.91;100.00
58769;BME280;44536;47.474;19.056;2023-05-16T05:03:28;100013.34;;;12.90;100.00
58769;BME280;44536;47.474;19.056;2023-05-16T05:06:31;100018.94;;;12.97;100.00
58769;BME280;44536;47.474;19.056;2023-05-16T05:09:33;100008.56;;;12.93;100.00
58769;BME280;44536;47.474;19.056;2023-05-16T05:12:36;100002.38;;;13.03;100.00
58769;BME280;44536;47.474;19.056;2023-05-16T05:15:38;100021.44;;;13.08;100.00
58769;BME280;44536;47.474;19.056;2023-05-16T05:18:41;100024.50;;;13.03;100.00
58769;BME280;44536;47.474;19.056;2023-05-16T05:21:43;100023.16;;;12.99;100.00
58769;BME280;44536;47.474;19.056;2023-05-16T05:24:47;100016.66;;;13.02;100.00
58769;BME280;44536;47.474;19.056;2023-05-16T05:27:49;100009.53;;;13.02;100.00
58769;BME280;44536;47.474;19.056;2023-05-16T05:30:52;100013.16;;;13.01;100.00
58769;BME280;44536;47.474;19.056;2023-05-16T05:33:55;100008.28;;;12.97;100.00
58769;BME280;44536;47.474;19.056;2023-05-16T05:36:58;100010.37;;;13.03;100.00
58769;BME280;44536;47.474;19.056;2023-05-16T05:40:00;100015.69;;;13.12;100.00
58769;BME280;44536;47.474;19.056;2023-05-16T05:43:03;100007.41;;;13.06;100.00
58769;BME280;44536;47.474;19.056;2023-05-16T05:46:05;100011.19;;;13.13;100.00
58769;BME280;44536;47.474;19.056;2023-05-16T05:49:08;99999.19;;;13.18;100.00
58769;BME280;44536;47.474;19.056;2023-05-16T05:52:14;100006.75;;;13.23;100.00
58769;BME280;44536;47.474;19.056;2023-05-16T05:55:16;100014.72;;;13.33;100.00
58769;BME280;44536;47.474;19.056;2023-05-16T05:58:20;100009.97;;;13.36;100.00
58769;BME280;44536;47.474;19.056;2023-05-16T06:01:23;100011.09;;;13.34;100.00
58769;BME280;44536;47.474;19.056;2023-05-16T06:04:25;100008.12;;;13.37;100.00
58769;BME280;44536;47.474;19.056;2023-05-16T06:07:28;100001.84;;;13.28;100.00
58769;BME280;44536;47.474;19.056;2023-05-16T06:10:30;100002.94;;;13.35;100.00
58769;BME280;44536;47.474;19.056;2023-05-16T06:13:33;99993.72;;;13.30;100.00
58769;BME280;44536;47.474;19.056;2023-05-16T06:16:36;99988.38;;;13.30;100.00
58769;BME280;44536;47.474;19.056;2023-05-16T06:19:42;99994.97;;;13.25;100.00
58769;BME280;44536;47.474;19.056;2023-05-16T06:22:44;99986.56;;;13.30;100.00
58769;BME280;44536;47.474;19.056;2023-05-16T06:25:46;99996.78;;;13.35;100.00
58769;BME280;44536;47.474;19.056;2023-05-16T06:28:49;99992.00;;;13.38;100.00
58769;BME280;44536;47.474;19.056;2023-05-16T06:31:52;99981.09;;;13.32;100.00
58769;BME280;44536;47.474;19.056;2023-05-16T06:34:54;99972.41;;;13.20;100.00
58769;BME280;44536;47.474;19.056;2023-05-16T06:37:57;99983.63;;;13.23;100.00
58769;BME280;44536;47.474;19.056;2023-05-16T06:40:59;99984.59;;;13.22;100.00
58769;BME280;44536;47.474;19.056;2023-05-16T06:44:02;99977.87;;;13.18;100.00
58769;BME280;44536;47.474;19.056;2023-05-16T06:47:06;99981.94;;;13.32;100.00
58769;BME280;44536;47.474;19.056;2023-05-16T06:50:08;99988.09;;;13.33;100.00
58769;BME280;44536;47.474;19.056;2023-05-16T06:53:12;99986.53;;;13.40;100.00
58769;BME280;44536;47.474;19.056;2023-05-16T06:56:15;99988.38;;;13.30;100.00
58769;BME280;44536;47.474;19.056;2023-05-16T06:59:18;99977.72;;;13.30;100.00
58769;BME280;44536;47.474;19.056;2023-05-16T07:02:20;99992.87;;;13.29;100.00
58769;BME280;44536;47.474;19.056;2023-05-16T07:05:23;99995.22;;;13.42;100.00
58769;BME280;44536;47.474;19.056;2023-05-16T07:08:25;99992.72;;;13.31;100.00
58769;BME280;44536;47.474;19.056;2023-05-16T07:11:28;99989.22;;;13.20;100.00
58769;BME280;44536;47.474;19.056;2023-05-16T07:14:30;99991.31;;;13.36;100.00
58769;BME280;44536;47.474;19.056;2023-05-16T07:17:33;99993.13;;;13.36;100.00
58769;BME280;44536;47.474;19.056;2023-05-16T07:20:35;99989.22;;;13.30;100.00
58769;BME280;44536;47.474;19.056;2023-05-16T07:23:38;99989.62;;;13.35;100.00
58769;BME280;44536;47.474;19.056;2023-05-16T07:26:41;99971.56;;;13.29;100.00
58769;BME280;44536;47.474;19.056;2023-05-16T07:29:44;99971.00;;;13.25;100.00
58769;BME280;44536;47.474;19.056;2023-05-16T07:32:46;99975.47;;;13.35;100.00
58769;BME280;44536;47.474;19.056;2023-05-16T07:35:50;99966.09;;;13.31;100.00
58769;BME280;44536;47.474;19.056;2023-05-16T07:39:09;99967.62;;;13.14;100.00
58769;BME280;44536;47.474;19.056;2023-05-16T07:42:12;99963.16;;;13.05;100.00
58769;BME280;44536;47.474;19.056;2023-05-16T07:45:16;99983.19;;;13.09;100.00
58769;BME280;44536;47.474;19.056;2023-05-16T07:48:19;99979.25;;;13.03;100.00
58769;BME280;44536;47.474;19.056;2023-05-16T07:51:21;99975.47;;;13.06;100.00
58769;BME280;44536;47.474;19.056;2023-05-16T07:54:24;99965.94;;;13.13;100.00
58769;BME280;44536;47.474;19.056;2023-05-16T07:57:28;99958.81;;;13.13;100.00
58769;BME280;44536;47.474;19.056;2023-05-16T08:00:30;99963.03;;;13.16;100.00
58769;BME280;44536;47.474;19.056;2023-05-16T08:03:33;99970.16;;;13.06;100.00
58769;BME280;44536;47.474;19.056;2023-05-16T08:06:36;99966.94;;;13.12;100.00
58769;BME280;44536;47.474;19.056;2023-05-16T08:09:39;99967.06;;;13.01;100.00
58769;BME280;44536;47.474;19.056;2023-05-16T08:12:42;99975.06;;;13.01;100.00
58769;BME280;44536;47.474;19.056;2023-05-16T08:15:45;99964.84;;;13.06;100.00
58769;BME280;44536;47.474;19.056;2023-05-16T08:18:49;99973.25;;;13.11;100.00
58769;BME280;44536;47.474;19.056;2023-05-16T08:21:52;99973.09;;;13.12;100.00
58769;BME280;44536;47.474;19.056;2023-05-16T08:24:54;99980.69;;;13.17;100.00
58769;BME280;44536;47.474;19.056;2023-05-16T08:28:02;99972.25;;;13.12;100.00
58769;BME280;44536;47.474;19.056;2023-05-16T08:31:05;99975.09;;;13.20;100.00
58769;BME280;44536;47.474;19.056;2023-05-16T08:34:07;99974.09;;;13.21;100.00
58769;BME280;44536;47.474;19.056;2023-05-16T08:37:11;99959.50;;;13.15;100.00
58769;BME280;44536;47.474;19.056;2023-05-16T08:40:14;99954.34;;;13.23;100.00
58769;BME280;44536;47.474;19.056;2023-05-16T08:43:17;99947.06;;;13.16;100.00
58769;BME280;44536;47.474;19.056;2023-05-16T08:46:21;99945.50;;;13.33;100.00
58769;BME280;44536;47.474;19.056;2023-05-16T08:49:26;99944.91;;;13.39;100.00
58769;BME280;44536;47.474;19.056;2023-05-16T08:52:30;99948.13;;;13.42;100.00
58769;BME280;44536;47.474;19.056;2023-05-16T08:55:34;99961.44;;;13.42;100.00
58769;BME280;44536;47.474;19.056;2023-05-16T08:58:38;99954.59;;;13.40;100.00
58769;BME280;44536;47.474;19.056;2023-05-16T09:01:41;99958.66;;;13.34;100.00
58769;BME280;44536;47.474;19.056;2023-05-16T09:04:48;99945.75;;;13.39;100.00
58769;BME280;44536;47.474;19.056;2023-05-16T09:07:53;99949.41;;;13.38;100.00
58769;BME280;44536;47.474;19.056;2023-05-16T09:11:00;99947.31;;;13.32;100.00
58769;BME280;44536;47.474;19.056;2023-05-16T09:14:03;99947.47;;;13.31;100.00
58769;BME280;44536;47.474;19.056;2023-05-16T09:17:07;99950.13;;;13.31;100.00
58769;BME280;44536;47.474;19.056;2023-05-16T09:20:15;99941.56;;;13.27;100.00
58769;BME280;44536;47.474;19.056;2023-05-16T09:23:23;99950.69;;;13.24;100.00
58769;BME280;44536;47.474;19.056;2023-05-16T09:26:25;99953.63;;;13.31;100.00
58769;BME280;44536;47.474;19.056;2023-05-16T09:29:28;99948.72;;;13.27;100.00
58769;BME280;44536;47.474;19.056;2023-05-16T09:32:33;99946.06;;;13.27;100.00
58769;BME280;44536;47.474;19.056;2023-05-16T09:35:36;99943.25;;;13.38;100.00
58769;BME280;44536;47.474;19.056;2023-05-16T09:38:42;99942.59;;;13.53;100.00
58769;BME280;44536;47.474;19.056;2023-05-16T09:41:45;99944.34;;;13.72;100.00
58769;BME280;44536;47.474;19.056;2023-05-16T09:44:53;99938.28;;;13.80;100.00
58769;BME280;44536;47.474;19.056;2023-05-16T09:48:06;99952.22;;;13.74;100.00
58769;BME280;44536;47.474;19.056;2023-05-16T09:51:11;99947.09;;;13.90;100.00
58769;BME280;44536;47.474;19.056;2023-05-16T09:54:14;99941.34;;;13.85;100.00
58769;BME280;44536;47.474;19.056;2023-05-16T09:57:20;99931.41;;;13.87;100.00
58769;BME280;44536;47.474;19.056;2023-05-16T10:00:29;99938.84;;;13.83;100.00
58769;BME280;44536;47.474;19.056;2023-05-16T10:03:34;99939.28;;;13.79;100.00
58769;BME280;44536;47.474;19.056;2023-05-16T10:06:38;99941.06;;;13.88;100.00
58769;BME280;44536;47.474;19.056;2023-05-16T10:09:43;99944.72;;;13.87;100.00
58769;BME280;44536;47.474;19.056;2023-05-16T10:12:47;99938.41;;;13.88;100.00
58769;BME280;44536;47.474;19.056;2023-05-16T10:15:54;99937.41;;;13.89;100.00
58769;BME280;44536;47.474;19.056;2023-05-16T10:18:58;99935.94;;;13.77;100.00
58769;BME280;44536;47.474;19.056;2023-05-16T10:22:04;99924.87;;;13.72;100.00
58769;BME280;44536;47.474;19.056;2023-05-16T10:25:25;99919.13;;;13.67;100.00
58769;BME280;44536;47.474;19.056;2023-05-16T10:28:31;99924.47;;;13.67;100.00
58769;BME280;44536;47.474;19.056;2023-05-16T10:31:34;99919.53;;;13.72;100.00
58769;BME280;44536;47.474;19.056;2023-05-16T10:34:38;99917.03;;;13.70;100.00
58769;BME280;44536;47.474;19.056;2023-05-16T10:37:41;99903.56;;;13.72;100.00
58769;BME280;44536;47.474;19.056;2023-05-16T10:40:46;99905.53;;;13.70;100.00
58769;BME280;44536;47.474;19.056;2023-05-16T10:43:57;99912.38;;;13.72;100.00
58769;BME280;44536;47.474;19.056;2023-05-16T10:47:02;99910.41;;;13.74;100.00
58769;BME280;44536;47.474;19.056;2023-05-16T10:50:06;99915.50;;;13.68;100.00
58769;BME280;44536;47.474;19.056;2023-05-16T10:56:25;99888.09;;;13.75;100.00
58769;BME280;44536;47.474;19.056;2023-05-16T10:59:28;99879.22;;;13.84;100.00
58769;BME280;44536;47.474;19.056;2023-05-16T11:02:39;99877.59;;;14.01;100.00
58769;BME280;44536;47.474;19.056;2023-05-16T11:05:50;99870.47;;;14.10;100.00
58769;BME280;44536;47.474;19.056;2023-05-16T11:12:08;99857.59;;;14.05;100.00
58769;BME280;44536;47.474;19.056;2023-05-16T11:18:22;99856.63;;;14.06;100.00
58769;BME280;44536;47.474;19.056;2023-05-16T11:22:06;99840.41;;;14.17;100.00
58769;BME280;44536;47.474;19.056;2023-05-16T11:25:09;99827.84;;;14.28;100.00
58769;BME280;44536;47.474;19.056;2023-05-16T11:28:14;99822.12;;;14.40;100.00
58769;BME280;44536;47.474;19.056;2023-05-16T11:31:18;99821.69;;;14.45;100.00
58769;BME280;44536;47.474;19.056;2023-05-16T11:34:21;99833.09;;;14.37;100.00
58769;BME280;44536;47.474;19.056;2023-05-16T11:37:24;99825.63;;;14.41;100.00
58769;BME280;44536;47.474;19.056;2023-05-16T11:40:27;99838.12;;;14.40;100.00
58769;BME280;44536;47.474;19.056;2023-05-16T11:43:36;99840.25;;;14.37;100.00
58769;BME280;44536;47.474;19.056;2023-05-16T11:46:39;99825.50;;;14.42;100.00
58769;BME280;44536;47.474;19.056;2023-05-16T11:49:44;99817.03;;;14.47;100.00
58769;BME280;44536;47.474;19.056;2023-05-16T11:52:52;99818.09;;;14.54;100.00
58769;BME280;44536;47.474;19.056;2023-05-16T11:55:56;99810.03;;;14.46;100.00
58769;BME280;44536;47.474;19.056;2023-05-16T11:59:01;99814.91;;;14.50;100.00
58769;BME280;44536;47.474;19.056;2023-05-16T12:02:04;99813.06;;;14.51;100.00
58769;BME280;44536;47.474;19.056;2023-05-16T12:05:08;99799.75;;;14.59;100.00
58769;BME280;44536;47.474;19.056;2023-05-16T12:08:14;99796.84;;;14.70;100.00
58769;BME280;44536;47.474;19.056;2023-05-16T12:11:17;99792.09;;;14.82;100.00
58769;BME280;44536;47.474;19.056;2023-05-16T12:14:21;99800.78;;;14.84;100.00
58769;BME280;44536;47.474;19.056;2023-05-16T12:17:27;99796.78;;;14.88;100.00
58769;BME280;44536;47.474;19.056;2023-05-16T12:20:32;99795.75;;;14.81;100.00
58769;BME280;44536;47.474;19.056;2023-05-16T12:23:35;99800.66;;;14.94;100.00
58769;BME280;44536;47.474;19.056;2023-05-16T12:26:39;99805.53;;;14.98;100.00
58769;BME280;44536;47.474;19.056;2023-05-16T12:29:46;99818.37;;;14.95;100.00
58769;BME280;44536;47.474;19.056;2023-05-16T12:33:10;99812.59;;;14.81;100.00
58769;BME280;44536;47.474;19.056;2023-05-16T12:36:13;99817.94;;;14.81;100.00
58769;BME280;44536;47.474;19.056;2023-05-16T12:39:16;99816.78;;;14.84;100.00
58769;BME280;44536;47.474;19.056;2023-05-16T12:42:19;99797.53;;;14.98;100.00
58769;BME280;44536;47.474;19.056;2023-05-16T12:45:22;99807.06;;;15.01;100.00
58769;BME280;44536;47.474;19.056;2023-05-16T12:48:33;99802.91;;;15.06;100.00
58769;BME280;44536;47.474;19.056;2023-05-16T12:51:47;99816.06;;;15.00;100.00
58769;BME280;44536;47.474;19.056;2023-05-16T12:54:51;99810.78;;;14.82;100.00
58769;BME280;44536;47.474;19.056;2023-05-16T12:57:55;99805.59;;;14.80;100.00
58769;BME280;44536;47.474;19.056;2023-05-16T13:00:59;99800.09;;;14.82;100.00
58769;BME280;44536;47.474;19.056;2023-05-16T13:04:03;99796.78;;;14.88;100.00
58769;BME280;44536;47.474;19.056;2023-05-16T13:07:06;99798.69;;;14.96;100.00
58769;BME280;44536;47.474;19.056;2023-05-16T13:10:10;99791.03;;;15.01;100.00
58769;BME280;44536;47.474;19.056;2023-05-16T13:13:13;99785.06;;;15.07;100.00
58769;BME280;44536;47.474;19.056;2023-05-16T13:16:26;99777.22;;;15.05;100.00
58769;BME280;44536;47.474;19.056;2023-05-16T13:19:29;99771.87;;;15.05;100.00
58769;BME280;44536;47.474;19.056;2023-05-16T13:22:32;99773.34;;;15.08;100.00
58769;BME280;44536;47.474;19.056;2023-05-16T13:25:35;99768.84;;;15.08;100.00
58769;BME280;44536;47.474;19.056;2023-05-16T13:28:38;99743.34;;;15.14;100.00
58769;BME280;44536;47.474;19.056;2023-05-16T13:31:40;99753.19;;;15.13;100.00
58769;BME280;44536;47.474;19.056;2023-05-16T13:34:43;99744.50;;;15.11;100.00
58769;BME280;44536;47.474;19.056;2023-05-16T13:37:45;99722.16;;;15.20;100.00
58769;BME280;44536;47.474;19.056;2023-05-16T13:40:48;99723.91;;;15.38;100.00
58769;BME280;44536;47.474;19.056;2023-05-16T13:43:50;99714.41;;;15.43;100.00
58769;BME280;44536;47.474;19.056;2023-05-16T13:46:53;99713.25;;;15.54;100.00
58769;BME280;44536;47.474;19.056;2023-05-16T13:49:56;99715.09;;;15.53;100.00
58769;BME280;44536;47.474;19.056;2023-05-16T13:52:58;99723.47;;;15.67;100.00
58769;BME280;44536;47.474;19.056;2023-05-16T13:56:01;99723.81;;;15.72;100.00
58769;BME280;44536;47.474;19.056;2023-05-16T13:59:03;99720.69;;;16.01;100.00
58769;BME280;44536;47.474;19.056;2023-05-16T14:02:08;99711.78;;;16.25;100.00
58769;BME280;44536;47.474;19.056;2023-05-16T14:05:11;99703.44;;;16.36;100.00
58769;BME280;44536;47.474;19.056;2023-05-16T14:08:14;99702.56;;;16.43;100.00
58769;BME280;44536;47.474;19.056;2023-05-16T14:11:17;99698.72;;;16.54;100.00
58769;BME280;44536;47.474;19.056;2023-05-16T14:14:20;99699.38;;;16.56;100.00
58769;BME280;44536;47.474;19.056;2023-05-16T14:17:23;99695.87;;;16.47;100.00
58769;BME280;44536;47.474;19.056;2023-05-16T14:20:25;99706.25;;;16.42;100.00
58769;BME280;44536;47.474;19.056;2023-05-16T14:23:28;99700.06;;;16.42;100.00
58769;BME280;44536;47.474;19.056;2023-05-16T14:26:30;99702.75;;;16.42;100.00
58769;BME280;44536;47.474;19.056;2023-05-16T14:29:33;99705.09;;;16.29;100.00
58769;BME280;44536;47.474;19.056;2023-05-16T14:32:35;99705.94;;;16.21;100.00
58769;BME280;44536;47.474;19.056;2023-05-16T14:35:39;99719.84;;;16.08;100.00
58769;BME280;44536;47.474;19.056;2023-05-16T14:38:42;99718.19;;;16.07;100.00
58769;BME280;44536;47.474;19.056;2023-05-16T14:41:46;99726.87;;;16.09;100.00
58769;BME280;44536;47.474;19.056;2023-05-16T14:44:48;99726.03;;;15.93;100.00
58769;BME280;44536;47.474;19.056;2023-05-16T14:47:52;99731.19;;;15.86;100.00
58769;BME280;44536;47.474;19.056;2023-05-16T14:50:55;99731.16;;;15.70;100.00
58769;BME280;44536;47.474;19.056;2023-05-16T14:53:58;99739.69;;;15.65;100.00
58769;BME280;44536;47.474;19.056;2023-05-16T14:57:01;99725.63;;;15.55;100.00
58769;BME280;44536;47.474;19.056;2023-05-16T15:00:05;99719.09;;;15.49;100.00
58769;BME280;44536;47.474;19.056;2023-05-16T15:03:08;99720.41;;;15.37;100.00
58769;BME280;44536;47.474;19.056;2023-05-16T15:06:10;99722.00;;;15.22;100.00
58769;BME280;44536;47.474;19.056;2023-05-16T15:09:13;99731.66;;;15.15;100.00
58769;BME280;44536;47.474;19.056;2023-05-16T15:12:15;99731.81;;;15.13;100.00
58769;BME280;44536;47.474;19.056;2023-05-16T15:15:18;99735.31;;;15.06;100.00
58769;BME280;44536;47.474;19.056;2023-05-16T15:18:20;99727.97;;;15.08;100.00
58769;BME280;44536;47.474;19.056;2023-05-16T15:21:23;99738.12;;;14.96;100.00
58769;BME280;44536;47.474;19.056;2023-05-16T15:24:25;99727.75;;;14.93;100.00
58769;BME280;44536;47.474;19.056;2023-05-16T15:27:28;99728.88;;;14.82;100.00
58769;BME280;44536;47.474;19.056;2023-05-16T15:30:30;99716.84;;;14.78;100.00
58769;BME280;44536;47.474;19.056;2023-05-16T15:33:33;99727.50;;;14.78;100.00
58769;BME280;44536;47.474;19.056;2023-05-16T15:36:35;99714.53;;;14.83;100.00
58769;BME280;44536;47.474;19.056;2023-05-16T15:39:42;99710.81;;;14.76;100.00
58769;BME280;44536;47.474;19.056;2023-05-16T15:42:51;99704.31;;;14.79;100.00
58769;BME280;44536;47.474;19.056;2023-05-16T15:45:53;99695.78;;;14.75;100.00
58769;BME280;44536;47.474;19.056;2023-05-16T15:48:55;99694.75;;;14.68;100.00
58769;BME280;44536;47.474;19.056;2023-05-16T15:51:59;99692.44;;;14.73;100.00
58769;BME280;44536;47.474;19.056;2023-05-16T15:55:02;99678.06;;;14.66;100.00
58769;BME280;44536;47.474;19.056;2023-05-16T15:58:04;99682.41;;;14.67;100.00
58769;BME280;44536;47.474;19.056;2023-05-16T16:01:07;99676.25;;;14.67;100.00
58769;BME280;44536;47.474;19.056;2023-05-16T16:04:10;99675.25;;;14.68;100.00